Time;durP1;ratioP1;P1;durP2;ratioP2;P2;SDS_P1;SDS_P2;PMS_P1;PMS_P2;Temp;Humidity;BMP_temperature;BMP_pressure;BME280_temperature;BME280_humidity;BME280_pressure;Samples;Min_cycle;Max_cycle;Signal;HPM_P1;HPM_P2
2022/05/05 00:01:34;;;;;;;4.72;4.53;;;10.60;99.90;;;;;;4178447;28;20405;-85
2022/05/05 00:03:38;;;;;;;6.22;6.03;;;10.50;99.90;;;;;;4177642;28;20551;-85
2022/05/05 00:05:40;;;;;;;5.45;5.25;;;10.60;99.90;;;;;;4160516;28;20049;-85
2022/05/05 00:07:42;;;;;;;6.30;6.03;;;10.50;99.90;;;;;;4171676;28;20124;-85
2022/05/05 00:09:44;;;;;;;5.38;5.18;;;10.50;99.90;;;;;;4178296;28;20443;-85
2022/05/05 00:14:28;;;;;;;6.00;5.70;;;10.30;99.90;;;;;;4178126;28;20052;-85
2022/05/05 00:16:31;;;;;;;6.60;6.15;;;10.30;99.90;;;;;;4160383;28;20120;-85
2022/05/05 00:18:34;;;;;;;7.13;6.80;;;10.20;99.90;;;;;;4171552;28;20045;-85
2022/05/05 00:20:36;;;;;;;6.75;5.63;;;10.10;99.90;;;;;;4177223;28;20045;-85
2022/05/05 00:22:38;;;;;;;6.47;6.20;;;10.10;99.90;;;;;;4178035;28;20480;-86
2022/05/05 00:24:41;;;;;;;6.50;6.38;;;10.10;99.90;;;;;;4193728;28;20075;-85
2022/05/05 00:26:44;;;;;;;6.75;6.45;;;10.10;99.90;;;;;;4176580;28;20045;-85
2022/05/05 00:28:47;;;;;;;6.60;6.03;;;10.00;99.90;;;;;;4176839;28;20041;-85
2022/05/05 00:30:50;;;;;;;6.05;5.85;;;10.10;99.90;;;;;;4193349;28;20120;-85
2022/05/05 00:32:52;;;;;;;6.13;5.93;;;10.10;99.90;;;;;;4193299;28;20059;-86
2022/05/05 00:34:55;;;;;;;6.10;6.00;;;10.10;99.90;;;;;;4177792;28;20072;-85
2022/05/05 00:36:58;;;;;;;6.15;5.75;;;10.10;99.90;;;;;;4176573;28;20132;-85
2022/05/05 00:39:00;;;;;;;6.18;5.78;;;10.10;99.90;;;;;;4176634;28;20053;-86
2022/05/05 00:41:02;;;;;;;5.45;5.13;;;10.00;99.90;;;;;;4176546;28;20044;-85
2022/05/05 00:43:04;;;;;;;6.88;6.60;;;9.90;99.90;;;;;;4185881;28;20143;-86
2022/05/05 00:45:07;;;;;;;6.75;6.45;;;9.80;99.90;;;;;;4160124;28;20080;-85
2022/05/05 00:47:14;;;;;;;48.85;9.20;;;9.80;99.90;;;;;;4176475;28;20529;-85
2022/05/05 00:49:18;;;;;;;7.97;7.43;;;9.70;99.90;;;;;;4159980;28;20810;-85
2022/05/05 00:51:20;;;;;;;9.27;8.02;;;9.60;99.90;;;;;;4176601;28;20045;-85
2022/05/05 00:53:23;;;;;;;10.38;8.63;;;9.60;99.90;;;;;;4194126;28;20147;-85
2022/05/05 00:55:26;;;;;;;17.10;8.43;;;9.60;99.90;;;;;;4194107;28;20123;-85
2022/05/05 00:57:28;;;;;;;7.03;6.82;;;9.60;99.90;;;;;;4177908;28;20484;-85
2022/05/05 00:59:30;;;;;;;;;;;9.60;99.90;;;;;;4187371;28;20066;-86
2022/05/05 01:01:34;;;;;;;12.15;8.43;;;9.70;99.90;;;;;;4177783;28;20325;-84
2022/05/05 01:03:37;;;;;;;28.27;9.75;;;9.80;99.90;;;;;;4173271;28;20040;-84
2022/05/05 01:05:41;;;;;;;10.35;9.60;;;9.70;99.90;;;;;;4159964;28;20048;-84
2022/05/05 01:07:43;;;;;;;17.63;9.30;;;9.70;99.90;;;;;;4176278;28;20449;-84
2022/05/05 01:09:48;;;;;;;171.43;12.57;;;9.70;99.90;;;;;;4194176;28;20793;-84
2022/05/05 01:11:50;;;;;;;159.90;11.32;;;9.70;99.90;;;;;;4168122;28;20469;-84
2022/05/05 01:13:52;;;;;;;;;;;9.70;99.90;;;;;;4176818;28;20068;-84
2022/05/05 01:15:55;;;;;;;102.67;8.53;;;9.70;99.90;;;;;;4183265;28;19959;-84
2022/05/05 01:17:57;;;;;;;63.42;7.90;;;9.60;99.90;;;;;;4185359;28;20403;-84
2022/05/05 01:20:12;;;;;;;35.30;6.72;;;9.40;99.90;;;;;;4176126;28;20040;-84
2022/05/05 01:22:15;;;;;;;93.88;10.15;;;9.30;99.90;;;;;;4176281;28;20041;-84
2022/05/05 01:24:18;;;;;;;7.10;6.90;;;9.30;99.90;;;;;;4177357;28;20048;-84
2022/05/05 01:28:45;;;;;;;12.73;7.80;;;9.50;99.90;;;;;;4176081;28;20037;-84
2022/05/05 01:30:48;;;;;;;19.88;7.03;;;9.40;99.90;;;;;;4177774;28;20068;-84
2022/05/05 01:32:53;;;;;;;135.00;11.88;;;9.40;99.90;;;;;;4179849;28;20057;-85
2022/05/05 01:34:55;;;;;;;55.03;9.25;;;9.20;99.90;;;;;;4180455;28;20071;-84
2022/05/05 01:36:57;;;;;;;7.07;6.88;;;9.10;99.90;;;;;;4162990;28;20049;-84
2022/05/05 01:38:59;;;;;;;7.35;6.93;;;9.20;99.90;;;;;;4179441;28;20468;-84
2022/05/05 01:41:06;;;;;;;8.57;7.82;;;9.30;99.90;;;;;;4179350;28;20045;-84
2022/05/05 01:43:08;;;;;;;18.33;7.05;;;9.30;99.90;;;;;;4146544;28;20057;-84
2022/05/05 01:45:10;;;;;;;76.40;9.00;;;9.30;99.90;;;;;;4180264;28;20047;-84
2022/05/05 01:47:13;;;;;;;118.38;11.77;;;9.20;99.90;;;;;;4180510;28;20033;-84
2022/05/05 01:49:15;;;;;;;119.70;11.63;;;9.10;99.90;;;;;;4162659;28;20569;-84
2022/05/05 01:51:17;;;;;;;84.97;8.15;;;9.10;99.90;;;;;;4174750;28;20165;-84
2022/05/05 01:53:22;;;;;;;115.72;10.52;;;9.00;99.90;;;;;;4164186;28;20038;-84
2022/05/05 01:55:24;;;;;;;170.32;10.90;;;8.90;99.90;;;;;;4146354;28;20148;-84
2022/05/05 01:57:26;;;;;;;177.30;11.38;;;8.90;99.90;;;;;;4156863;28;20048;-84
2022/05/05 01:59:29;;;;;;;121.95;10.93;;;8.80;99.90;;;;;;4146186;28;20510;-84
2022/05/05 02:01:31;;;;;;;65.10;7.03;;;8.80;99.90;;;;;;4162551;28;20099;-84
2022/05/05 02:03:33;;;;;;;79.35;7.97;;;8.80;99.90;;;;;;4162518;28;20057;-84
2022/05/05 02:05:35;;;;;;;30.85;6.10;;;8.80;99.90;;;;;;4174877;28;20037;-84
2022/05/05 02:07:39;;;;;;;83.93;6.55;;;8.80;99.90;;;;;;4163854;28;20040;-84
2022/05/05 02:09:42;;;;;;;46.17;6.78;;;8.70;99.90;;;;;;4162313;28;20117;-84
2022/05/05 02:11:44;;;;;;;5.40;4.97;;;8.70;99.90;;;;;;4137403;28;20092;-84
2022/05/05 02:13:46;;;;;;;5.72;5.63;;;8.80;99.90;;;;;;4162658;28;20037;-84
2022/05/05 02:15:51;;;;;;;5.75;5.35;;;8.80;99.90;;;;;;4146101;28;20142;-84
2022/05/05 02:17:53;;;;;;;5.50;5.35;;;8.90;99.90;;;;;;4162090;28;20611;-84
2022/05/05 02:19:55;;;;;;;5.57;5.47;;;8.90;99.90;;;;;;4145840;28;20054;-85
2022/05/05 02:21:58;;;;;;;;;;;8.80;99.90;;;;;;4179203;28;20075;-84
2022/05/05 02:24:00;;;;;;;5.53;5.43;;;8.80;99.90;;;;;;4178344;28;19959;-84
2022/05/05 02:26:04;;;;;;;5.40;5.20;;;8.80;99.90;;;;;;4162245;28;20128;-84
2022/05/05 02:28:06;;;;;;;5.25;5.10;;;8.80;99.90;;;;;;4145569;28;20049;-84
2022/05/05 02:30:09;;;;;;;7.20;6.63;;;8.70;99.90;;;;;;4179127;28;20575;-84
2022/05/05 02:32:11;;;;;;;7.25;6.53;;;8.80;99.90;;;;;;4178785;28;20148;-84
2022/05/05 02:34:13;;;;;;;5.75;5.65;;;8.90;99.90;;;;;;4162515;28;20076;-84
2022/05/05 02:38:42;;;;;;;63.45;6.00;;;9.00;99.90;;;;;;4145675;28;20129;-84
2022/05/05 02:40:44;;;;;;;48.75;5.70;;;8.70;99.90;;;;;;4162263;28;20057;-84
2022/05/05 02:42:46;;;;;;;27.55;5.72;;;8.60;99.90;;;;;;4164816;28;20482;-84
2022/05/05 02:44:48;;;;;;;8.93;6.13;;;8.50;99.90;;;;;;4175692;28;20060;-84
2022/05/05 02:46:50;;;;;;;27.67;7.50;;;8.50;99.90;;;;;;4178365;28;20065;-84
2022/05/05 02:48:52;;;;;;;7.18;6.82;;;8.50;99.90;;;;;;4178104;28;20045;-84
2022/05/05 02:50:55;;;;;;;7.13;6.00;;;8.50;99.90;;;;;;4178376;28;20041;-84
2022/05/05 02:52:57;;;;;;;5.22;5.13;;;8.60;99.90;;;;;;4178450;28;20037;-84
2022/05/05 02:55:01;;;;;;;113.25;8.48;;;8.70;99.90;;;;;;4161862;28;20049;-84
2022/05/05 02:57:04;;;;;;;4.18;4.07;;;8.60;99.90;;;;;;4178174;28;20413;-84
2022/05/05 02:59:06;;;;;;;;;;;8.60;99.90;;;;;;4178951;28;20120;-84
2022/05/05 03:01:08;;;;;;;6.78;6.43;;;8.60;99.90;;;;;;4187750;28;19940;-84
2022/05/05 03:03:11;;;;;;;6.53;6.32;;;8.70;99.90;;;;;;4178259;28;20885;-84
2022/05/05 03:05:15;;;;;;;35.90;6.00;;;8.90;99.90;;;;;;4161715;28;20042;-84
2022/05/05 03:07:17;;;;;;;39.40;6.57;;;8.80;99.90;;;;;;4178392;28;20090;-84
2022/05/05 03:09:19;;;;;;;13.57;6.28;;;8.70;99.90;;;;;;4178012;28;20512;-84
2022/05/05 03:11:21;;;;;;;189.38;11.85;;;8.70;99.90;;;;;;4178281;28;20652;-84
2022/05/05 03:13:24;;;;;;;33.67;6.97;;;8.60;99.90;;;;;;4179260;28;20037;-84
2022/05/05 03:15:27;;;;;;;14.52;5.57;;;8.50;99.90;;;;;;4145266;28;20076;-84
2022/05/05 03:17:29;;;;;;;30.08;6.40;;;8.60;99.90;;;;;;4165686;28;20037;-84
2022/05/05 03:19:31;;;;;;;75.78;7.82;;;8.50;99.90;;;;;;4177837;28;20072;-84
2022/05/05 03:21:33;;;;;;;193.00;12.65;;;8.40;99.90;;;;;;4178105;28;20069;-84
2022/05/05 03:23:37;;;;;;;116.82;9.23;;;8.30;99.90;;;;;;4161376;28;20041;-84
2022/05/05 03:25:40;;;;;;;61.40;7.28;;;8.30;99.90;;;;;;4178119;28;20041;-84
2022/05/05 03:27:42;;;;;;;34.55;5.50;;;8.30;99.90;;;;;;4194297;28;20579;-84
2022/05/05 03:29:45;;;;;;;25.95;5.07;;;8.20;99.90;;;;;;4177815;28;20501;-84
2022/05/05 03:31:48;;;;;;;131.65;9.45;;;8.20;99.90;;;;;;4177823;28;20045;-84
2022/05/05 03:33:50;;;;;;;31.00;6.60;;;8.20;99.90;;;;;;4177915;28;20091;-84
2022/05/05 03:35:53;;;;;;;123.70;9.52;;;8.20;99.90;;;;;;4161270;28;20513;-84
2022/05/05 03:37:57;;;;;;;98.32;8.43;;;8.20;99.90;;;;;;4177839;28;20041;-84
2022/05/05 03:39:59;;;;;;;11.63;5.22;;;8.20;99.90;;;;;;4172800;28;20049;-84
2022/05/05 03:42:02;;;;;;;64.30;7.65;;;8.20;99.90;;;;;;4177829;28;20579;-84
2022/05/05 03:44:05;;;;;;;;;;;8.20;99.90;;;;;;4190226;28;20106;-84
2022/05/05 03:46:07;;;;;;;20.92;5.28;;;8.30;99.90;;;;;;4177574;28;20299;-84
2022/05/05 03:48:09;;;;;;;205.63;13.15;;;8.30;99.90;;;;;;4178345;28;20532;-84
2022/05/05 03:50:12;;;;;;;40.83;5.55;;;8.30;99.90;;;;;;4177798;28;20080;-84
2022/05/05 03:52:14;;;;;;;20.73;6.30;;;8.20;99.90;;;;;;4179772;28;20116;-84
2022/05/05 03:54:16;;;;;;;36.28;6.97;;;8.20;99.90;;;;;;4161848;28;20041;-84
2022/05/05 03:56:18;;;;;;;26.27;5.22;;;8.20;99.90;;;;;;4178932;28;20060;-84
2022/05/05 03:58:20;;;;;;;19.58;4.97;;;8.30;99.90;;;;;;4179028;28;20033;-84
2022/05/05 04:00:23;;;;;;;15.00;4.28;;;8.20;99.90;;;;;;4178577;28;20812;-84
2022/05/05 04:02:25;;;;;;;28.73;5.50;;;8.10;99.90;;;;;;4179894;28;20095;-84
2022/05/05 04:04:28;;;;;;;24.33;4.50;;;8.20;99.90;;;;;;4177571;28;20047;-84
2022/05/05 04:06:30;;;;;;;69.70;6.78;;;8.20;99.90;;;;;;4194795;28;20135;-84
2022/05/05 04:08:33;;;;;;;8.73;4.85;;;8.10;99.90;;;;;;4177974;28;20680;-84
2022/05/05 04:10:35;;;;;;;8.57;4.47;;;8.10;99.90;;;;;;4193916;28;20712;-84
2022/05/05 04:12:37;;;;;;;7.60;5.30;;;8.10;99.90;;;;;;4178994;28;20056;-84
2022/05/05 04:14:40;;;;;;;18.85;4.13;;;8.20;99.90;;;;;;4177605;28;20111;-84
2022/05/05 04:16:43;;;;;;;17.83;5.57;;;8.10;99.90;;;;;;4171300;28;20063;-84
2022/05/05 04:18:45;;;;;;;4.35;4.25;;;8.10;99.90;;;;;;4177385;28;20485;-84
2022/05/05 04:20:47;;;;;;;15.00;5.07;;;8.10;99.90;;;;;;4177177;28;20492;-84
2022/05/05 04:22:49;;;;;;;17.23;5.50;;;8.20;99.90;;;;;;4151543;28;20141;-84
2022/05/05 04:24:51;;;;;;;33.47;6.18;;;8.10;99.90;;;;;;4185311;28;20694;-84
2022/05/05 04:26:54;;;;;;;23.88;4.85;;;8.10;99.90;;;;;;4160540;28;20087;-84
2022/05/05 04:28:59;;;;;;;42.85;5.60;;;8.10;99.90;;;;;;4176396;28;20037;-84
2022/05/05 04:31:01;;;;;;;41.92;5.85;;;8.10;99.90;;;;;;4161117;28;20799;-84
2022/05/05 04:33:03;;;;;;;3.60;3.45;;;8.10;99.90;;;;;;4161173;28;20083;-84
2022/05/05 04:35:06;;;;;;;8.48;4.60;;;8.10;99.90;;;;;;4160484;28;20056;-84
2022/05/05 04:37:08;;;;;;;13.80;4.30;;;8.10;99.90;;;;;;4164628;28;20616;-84
2022/05/05 04:39:10;;;;;;;16.63;6.03;;;8.10;99.90;;;;;;4160175;28;20080;-84
2022/05/05 04:41:12;;;;;;;5.75;5.45;;;8.20;99.90;;;;;;4160856;28;20143;-84
2022/05/05 04:43:14;;;;;;;203.85;11.63;;;8.20;99.90;;;;;;4176761;28;20139;-84
2022/05/05 04:45:16;;;;;;;228.70;13.90;;;8.20;99.90;;;;;;4193353;28;20096;-84
2022/05/05 04:47:19;;;;;;;;;;;8.20;99.90;;;;;;4177346;28;20041;-84
2022/05/05 04:49:21;;;;;;;5.97;5.78;;;8.20;99.90;;;;;;4193228;28;20011;-84
2022/05/05 04:51:23;;;;;;;10.73;6.05;;;8.30;99.90;;;;;;4193422;28;20500;-84
2022/05/05 04:53:25;;;;;;;19.50;6.80;;;8.40;99.90;;;;;;4193313;28;20064;-84
2022/05/05 04:55:27;;;;;;;7.20;5.38;;;8.40;99.90;;;;;;4176785;28;20663;-84
2022/05/05 04:57:29;;;;;;;6.40;6.18;;;8.30;99.90;;;;;;4176169;28;20075;-84
2022/05/05 04:59:32;;;;;;;17.27;5.20;;;8.30;99.90;;;;;;4193611;28;20037;-84
2022/05/05 05:01:34;;;;;;;6.93;5.25;;;8.30;99.90;;;;;;4176615;28;20585;-84
2022/05/05 05:03:39;;;;;;;9.80;5.57;;;8.30;99.90;;;;;;4194229;28;20480;-84
2022/05/05 05:05:42;;;;;;;10.80;5.10;;;8.30;99.90;;;;;;4176757;28;20132;-84
2022/05/05 05:07:44;;;;;;;180.18;12.25;;;8.30;99.90;;;;;;4193082;28;20037;-84
2022/05/05 05:09:48;;;;;;;161.25;9.93;;;8.20;99.90;;;;;;4192927;28;20048;-84
2022/05/05 05:11:50;;;;;;;70.10;7.35;;;8.20;99.90;;;;;;4176618;28;20140;-84
2022/05/05 05:13:53;;;;;;;172.18;11.60;;;8.10;99.90;;;;;;4192992;28;20815;-84
2022/05/05 05:15:55;;;;;;;33.03;5.93;;;8.10;99.90;;;;;;4176616;28;20052;-84
2022/05/05 05:17:57;;;;;;;29.58;4.50;;;8.10;99.90;;;;;;4176223;28;20049;-84
2022/05/05 05:19:59;;;;;;;53.78;6.13;;;8.10;99.90;;;;;;4175765;28;20047;-84
2022/05/05 05:22:02;;;;;;;9.43;5.03;;;8.10;99.90;;;;;;4176242;28;20075;-84
2022/05/05 05:24:04;;;;;;;8.35;4.13;;;8.10;99.90;;;;;;4176374;28;20563;-86
2022/05/05 05:26:06;;;;;;;;;;;8.20;99.90;;;;;;4194559;28;20083;-86
2022/05/05 05:28:09;;;;;;;42.83;5.57;;;8.10;99.90;;;;;;4176209;28;19959;-85
2022/05/05 05:30:13;;;;;;;44.50;6.07;;;8.20;99.90;;;;;;4176580;28;20087;-86
2022/05/05 05:32:16;;;;;;;55.35;4.63;;;8.20;99.90;;;;;;4189820;28;20036;-86
2022/05/05 05:34:19;;;;;;;35.70;5.38;;;8.20;99.90;;;;;;4192971;28;20045;-86
2022/05/05 05:36:21;;;;;;;107.15;7.93;;;8.20;99.90;;;;;;4177589;28;20473;-85
2022/05/05 05:38:25;;;;;;;101.38;7.65;;;8.20;99.90;;;;;;4176399;28;20048;-85
2022/05/05 05:40:27;;;;;;;136.85;8.73;;;8.20;99.90;;;;;;4178484;28;20041;-85
2022/05/05 05:42:30;;;;;;;54.35;5.15;;;8.20;99.90;;;;;;4159879;28;20152;-86
2022/05/05 05:44:33;;;;;;;47.83;5.53;;;8.10;99.90;;;;;;4193747;28;20059;-86
2022/05/05 05:46:36;;;;;;;4.55;4.45;;;8.20;99.90;;;;;;4159806;28;20033;-86
2022/05/05 05:48:38;;;;;;;4.60;4.30;;;8.30;99.90;;;;;;4177847;28;20128;-86
2022/05/05 05:50:43;;;;;;;66.80;7.07;;;8.40;99.90;;;;;;4155364;28;20104;-86
2022/05/05 05:52:46;;;;;;;46.97;5.95;;;8.40;99.90;;;;;;4176269;28;20044;-86
2022/05/05 05:54:49;;;;;;;15.23;4.95;;;8.40;99.90;;;;;;4176075;28;20091;-86
2022/05/05 05:56:58;;;;;;;4.70;4.60;;;8.40;99.90;;;;;;4176208;28;20060;-85
2022/05/05 05:59:04;;;;;;;5.72;5.55;;;8.50;99.90;;;;;;4192582;28;20164;-85
2022/05/05 06:01:07;;;;;;;53.75;7.05;;;8.60;99.90;;;;;;4176126;28;20036;-86
2022/05/05 06:05:30;;;;;;;8.82;4.45;;;8.60;99.90;;;;;;4190867;28;20036;-89
2022/05/05 06:07:34;;;;;;;26.50;5.30;;;8.60;99.90;;;;;;4178593;28;20433;-88
2022/05/05 06:09:36;;;;;;;57.65;5.18;;;8.50;99.90;;;;;;4182799;28;20527;-88
2022/05/05 06:11:38;;;;;;;;;;;8.50;99.90;;;;;;4186011;28;20037;-87
2022/05/05 06:13:41;;;;;;;20.63;5.15;;;8.40;99.90;;;;;;4176065;28;20531;-88
2022/05/05 06:15:43;;;;;;;166.23;10.63;;;8.40;99.90;;;;;;4159519;28;20057;-89
2022/05/05 06:17:45;;;;;;;71.15;6.63;;;8.30;99.90;;;;;;4178935;28;20033;-88
2022/05/05 06:19:47;;;;;;;63.53;7.40;;;8.30;99.90;;;;;;4195307;28;20037;-88
2022/05/05 06:21:50;;;;;;;75.22;7.80;;;8.40;99.90;;;;;;4162464;28;20075;-88
2022/05/05 06:23:53;;;;;;;16.88;5.93;;;8.40;99.90;;;;;;4178671;28;20128;-88
2022/05/05 06:25:55;;;;;;;22.05;7.25;;;8.40;99.90;;;;;;4178881;28;20049;-87
2022/05/05 06:27:58;;;;;;;36.45;8.73;;;8.50;99.90;;;;;;4196030;28;20123;-87
2022/05/05 06:30:01;;;;;;;;;;;8.60;99.90;;;;;;4179035;28;20512;-87
2022/05/05 06:32:04;;;;;;;295.98;18.23;;;8.60;99.90;;;;;;4196531;28;20035;-88
2022/05/05 06:34:07;;;;;;;25.45;6.25;;;8.50;99.90;;;;;;4178899;28;20041;-88
2022/05/05 06:36:10;;;;;;;62.97;7.85;;;8.50;99.90;;;;;;4162137;28;20056;-88
2022/05/05 06:38:12;;;;;;;5.38;4.93;;;8.60;99.90;;;;;;4178601;28;20454;-88
2022/05/05 06:40:14;;;;;;;7.78;6.03;;;8.60;99.90;;;;;;4178594;28;20581;-88
2022/05/05 06:42:17;;;;;;;5.78;5.68;;;8.70;99.90;;;;;;4167383;28;20052;-89
2022/05/05 06:44:19;;;;;;;4.80;4.70;;;8.70;99.90;;;;;;4173513;28;20166;-88
2022/05/05 06:46:21;;;;;;;17.33;5.40;;;8.90;99.90;;;;;;4178598;28;20056;-87
2022/05/05 06:48:31;;;;;;;5.25;4.95;;;8.80;99.90;;;;;;4163092;28;20080;-86
2022/05/05 06:50:33;;;;;;;5.22;4.93;;;8.80;99.90;;;;;;4178349;28;20080;-88
2022/05/05 06:52:36;;;;;;;5.72;5.53;;;8.80;99.90;;;;;;4162073;28;20456;-88
2022/05/05 06:54:41;;;;;;;4.38;4.28;;;9.00;99.90;;;;;;4170097;28;20640;-88
2022/05/05 06:56:44;;;;;;;6.80;6.60;;;9.10;99.90;;;;;;4195107;28;20132;-88
2022/05/05 06:58:46;;;;;;;6.40;6.25;;;9.20;99.90;;;;;;4194922;28;20191;-87
2022/05/05 07:03:09;;;;;;;7.47;7.03;;;9.20;99.90;;;;;;4195959;28;20828;-88
2022/05/05 07:05:26;;;;;;;5.10;4.70;;;9.30;99.90;;;;;;4177985;28;20072;-87
2022/05/05 07:07:29;;;;;;;5.30;4.88;;;9.30;99.90;;;;;;4191864;28;20041;-88
2022/05/05 07:11:54;;;;;;;6.15;5.57;;;9.40;99.90;;;;;;4187803;28;20068;-87
2022/05/05 07:13:56;;;;;;;6.38;6.10;;;9.50;99.90;;;;;;4195053;28;20043;-88
2022/05/05 07:15:58;;;;;;;6.32;6.10;;;9.60;99.90;;;;;;4195913;28;20424;-88
2022/05/05 07:18:00;;;;;;;5.63;5.30;;;9.50;99.90;;;;;;4185790;28;20863;-88
2022/05/05 07:20:03;;;;;;;5.10;4.82;;;9.50;99.90;;;;;;4145023;28;20045;-88
2022/05/05 07:22:08;;;;;;;5.72;5.47;;;9.50;99.90;;;;;;4161920;28;20049;-88
2022/05/05 07:24:10;;;;;;;4.50;4.40;;;9.60;99.90;;;;;;4161503;28;20076;-88
2022/05/05 07:26:14;;;;;;;5.00;4.57;;;9.50;99.90;;;;;;4194157;28;20036;-90
2022/05/05 07:28:17;;;;;;;5.07;4.93;;;9.60;99.90;;;;;;4177261;28;20083;-90
2022/05/05 07:30:19;;;;;;;5.72;5.30;;;9.60;99.90;;;;;;4194649;28;20215;-90
2022/05/05 07:32:22;;;;;;;5.45;5.25;;;9.70;99.90;;;;;;4177832;28;20087;-90
2022/05/05 07:34:25;;;;;;;5.32;5.03;;;9.80;99.90;;;;;;4178075;28;20064;-90
2022/05/05 07:36:28;;;;;;;7.22;5.18;;;9.80;99.90;;;;;;4195528;28;20036;-91
2022/05/05 07:38:31;;;;;;;5.78;5.40;;;9.80;99.90;;;;;;4195997;28;20040;-90
2022/05/05 07:40:34;;;;;;;5.63;5.38;;;9.90;99.90;;;;;;4195002;28;20053;-90
2022/05/05 07:42:37;;;;;;;6.28;5.03;;;9.90;99.90;;;;;;4161197;28;20124;-90
2022/05/05 07:44:39;;;;;;;5.93;5.68;;;10.00;99.90;;;;;;4178196;28;20056;-91
2022/05/05 07:46:42;;;;;;;9.20;6.25;;;10.00;99.90;;;;;;4177784;28;20135;-91
2022/05/05 07:48:44;;;;;;;;;;;10.00;99.90;;;;;;4196023;28;20127;-90
2022/05/05 07:50:48;;;;;;;11.90;6.18;;;10.00;99.90;;;;;;4177577;28;19927;-89
2022/05/05 07:52:50;;;;;;;6.57;5.60;;;10.10;99.90;;;;;;4194127;28;20127;-90
2022/05/05 07:54:55;;;;;;;6.47;5.70;;;10.20;99.90;;;;;;4178423;28;20051;-90
2022/05/05 07:56:57;;;;;;;10.25;5.60;;;10.20;99.90;;;;;;4177534;28;20064;-90
2022/05/05 07:58:59;;;;;;;9.93;5.65;;;10.20;99.90;;;;;;4178053;28;20049;-89
2022/05/05 08:01:01;;;;;;;8.43;6.13;;;10.20;99.90;;;;;;4195057;28;20060;-88
2022/05/05 08:03:05;;;;;;;12.55;7.03;;;10.20;99.90;;;;;;4194126;28;20102;-90
2022/05/05 08:05:09;;;;;;;12.02;7.05;;;10.10;99.90;;;;;;4195544;28;20123;-90
2022/05/05 08:07:13;;;;;;;12.68;5.80;;;10.20;99.90;;;;;;4177479;28;20033;-91
2022/05/05 08:09:16;;;;;;;22.25;7.05;;;10.20;99.90;;;;;;4193946;28;20101;-90
2022/05/05 08:11:18;;;;;;;;;;;10.20;99.90;;;;;;4178144;28;20041;-90
2022/05/05 08:13:20;;;;;;;15.20;7.95;;;10.20;99.90;;;;;;4193897;28;19988;-89
2022/05/05 08:15:22;;;;;;;8.18;6.88;;;10.20;99.90;;;;;;4179306;28;20754;-90
2022/05/05 08:17:24;;;;;;;21.40;8.18;;;10.20;99.90;;;;;;4179398;28;20064;-90
2022/05/05 08:19:26;;;;;;;18.30;7.72;;;10.20;99.90;;;;;;4162846;28;20099;-89
2022/05/05 08:21:28;;;;;;;29.33;7.28;;;10.20;99.90;;;;;;4179565;28;20475;-90
2022/05/05 08:23:32;;;;;;;32.63;8.93;;;10.30;99.90;;;;;;4162907;28;20065;-90
2022/05/05 08:30:15;;;;;;;31.55;8.82;;;10.30;99.90;;;;;;4162178;28;20065;-90
2022/05/05 08:32:19;;;;;;;44.53;9.48;;;10.30;99.90;;;;;;4152590;28;20103;-90
2022/05/05 08:34:21;;;;;;;39.85;8.50;;;10.20;99.90;;;;;;4161496;28;20611;-92
2022/05/05 08:36:23;;;;;;;22.50;7.95;;;10.20;99.90;;;;;;4194040;28;20481;-90
2022/05/05 08:38:26;;;;;;;22.48;7.28;;;10.20;99.90;;;;;;4160898;28;20038;-89
2022/05/05 08:40:29;;;;;;;12.93;6.13;;;10.30;99.90;;;;;;4177095;28;20052;-91
2022/05/05 08:42:32;;;;;;;42.00;9.52;;;10.30;99.90;;;;;;4177216;28;20047;-90
2022/05/05 08:44:34;;;;;;;14.88;6.97;;;10.20;99.90;;;;;;4190779;28;20052;-92
2022/05/05 08:46:40;;;;;;;8.05;6.88;;;10.20;99.90;;;;;;4194082;28;20088;-90
2022/05/05 08:48:44;;;;;;;8.80;6.15;;;10.30;99.90;;;;;;4182435;28;20529;-90
2022/05/05 08:50:55;;;;;;;6.43;5.90;;;10.40;99.90;;;;;;4179159;28;20108;-91
2022/05/05 08:52:58;;;;;;;7.70;7.18;;;10.40;99.90;;;;;;4160863;28;20041;-91
2022/05/05 08:55:03;;;;;;;6.60;6.13;;;10.50;99.90;;;;;;4176999;28;20072;-90
2022/05/05 08:57:06;;;;;;;6.30;5.95;;;10.50;99.90;;;;;;4176863;28;20504;-90
2022/05/05 08:59:09;;;;;;;9.13;7.00;;;10.50;99.90;;;;;;4160713;28;20042;-90
2022/05/05 09:01:12;;;;;;;9.00;7.43;;;10.60;99.90;;;;;;4186824;28;20119;-91
2022/05/05 09:03:15;;;;;;;7.18;6.70;;;10.50;99.90;;;;;;4177107;28;20041;-88
2022/05/05 09:05:44;;;;;;;8.57;6.55;;;10.60;99.90;;;;;;4194308;28;20082;-88
2022/05/05 09:07:51;;;;;;;8.45;6.47;;;10.70;99.90;;;;;;4176574;28;20041;-88
2022/05/05 09:09:53;;;;;;;6.43;6.10;;;10.70;99.90;;;;;;4193241;28;20075;-88
2022/05/05 09:12:05;;;;;;;5.55;5.30;;;10.70;99.90;;;;;;4186559;28;20037;-87
2022/05/05 09:14:07;;;;;;;6.38;5.85;;;10.70;99.90;;;;;;4193154;28;20638;-88
2022/05/05 09:16:24;;;;;;;5.57;5.47;;;10.60;99.90;;;;;;4160104;28;20072;-88
2022/05/05 09:18:30;;;;;;;5.93;5.55;;;10.70;99.90;;;;;;4172691;28;20045;-88
2022/05/05 09:20:35;;;;;;;6.00;5.90;;;10.80;99.90;;;;;;4192930;28;20044;-88
2022/05/05 09:22:49;;;;;;;6.65;6.22;;;10.80;99.90;;;;;;4192963;28;20558;-88
2022/05/05 09:24:56;;;;;;;7.93;7.28;;;10.80;99.90;;;;;;4176552;28;20045;-88
2022/05/05 09:26:58;;;;;;;6.55;6.32;;;10.80;99.90;;;;;;4159796;28;20046;-87
2022/05/05 09:29:20;;;;;;;5.85;5.38;;;10.90;99.90;;;;;;4194106;28;20524;-88
2022/05/05 09:31:22;;;;;;;6.75;6.30;;;10.90;99.90;;;;;;4176407;28;20045;-88
2022/05/05 09:33:34;;;;;;;5.60;5.38;;;10.90;99.90;;;;;;4194029;28;20036;-88
2022/05/05 09:35:36;;;;;;;5.88;5.35;;;10.90;99.90;;;;;;4176307;28;20644;-88
2022/05/05 09:37:58;;;;;;;5.05;4.65;;;10.90;99.90;;;;;;4160084;28;20046;-87
2022/05/05 09:40:02;;;;;;;5.80;5.50;;;10.90;99.90;;;;;;4176201;28;20076;-87
2022/05/05 09:42:05;;;;;;;6.28;5.70;;;10.90;99.90;;;;;;4192184;28;20527;-87
2022/05/05 09:44:16;;;;;;;7.00;5.93;;;10.90;99.90;;;;;;4182085;28;20094;-88
2022/05/05 09:46:26;;;;;;;6.00;5.68;;;10.90;99.90;;;;;;4177730;28;20048;-87
2022/05/05 09:48:29;;;;;;;8.70;8.05;;;10.90;99.90;;;;;;4191435;28;20151;-87
2022/05/05 09:50:34;;;;;;;13.75;12.65;;;10.90;99.90;;;;;;4189828;28;20562;-87
2022/05/05 09:59:42;;;;;;;8.27;6.38;;;11.00;99.90;;;;;;4183779;28;20472;-88
2022/05/05 10:01:50;;;;;;;7.32;7.05;;;11.00;99.90;;;;;;4193568;28;20474;-88
2022/05/05 10:04:00;;;;;;;7.40;6.90;;;11.00;99.90;;;;;;4179101;28;20788;-88
2022/05/05 10:06:03;;;;;;;6.93;6.50;;;11.10;99.90;;;;;;4190875;28;20044;-88
2022/05/05 10:08:07;;;;;;;8.32;7.28;;;11.20;99.90;;;;;;4179048;28;20068;-87
2022/05/05 10:10:10;;;;;;;6.88;6.57;;;11.20;99.90;;;;;;4196515;28;20036;-88
2022/05/05 10:12:14;;;;;;;8.70;7.95;;;11.20;99.90;;;;;;4163127;28;20061;-88
2022/05/05 10:14:16;;;;;;;6.68;6.47;;;11.30;99.90;;;;;;4196083;28;20088;-88
2022/05/05 10:16:21;;;;;;;6.90;6.63;;;11.30;99.90;;;;;;4167059;28;20118;-88
2022/05/05 10:18:24;;;;;;;7.63;7.13;;;11.30;99.90;;;;;;4179144;28;20073;-88
2022/05/05 10:20:27;;;;;;;8.55;7.95;;;11.40;99.90;;;;;;4196640;28;20036;-87
2022/05/05 10:23:09;;;;;;;6.82;6.63;;;11.40;99.90;;;;;;4179193;28;20045;-88
2022/05/05 10:25:18;;;;;;;6.85;6.60;;;11.40;99.90;;;;;;4187544;28;20033;-88
2022/05/05 10:27:22;;;;;;;10.15;9.45;;;11.30;99.90;;;;;;4173813;28;20041;-88
2022/05/05 10:29:36;;;;;;;8.65;8.02;;;11.30;99.90;;;;;;4185619;28;20091;-88
2022/05/05 10:31:42;;;;;;;6.80;6.60;;;11.40;99.90;;;;;;4180106;28;20652;-88
2022/05/05 10:34:06;;;;;;;8.40;8.10;;;11.50;99.90;;;;;;4191084;28;20111;-88
2022/05/05 10:36:24;;;;;;;7.47;7.22;;;11.50;99.90;;;;;;4178034;28;20041;-87
2022/05/05 10:38:43;;;;;;;8.30;7.68;;;11.60;99.90;;;;;;4194698;28;20064;-88
2022/05/05 10:40:45;;;;;;;8.15;7.35;;;11.70;99.90;;;;;;4178994;28;20048;-88
2022/05/05 10:42:51;;;;;;;6.60;6.30;;;11.80;99.90;;;;;;4184605;28;20093;-88
2022/05/05 10:45:06;;;;;;;6.53;6.35;;;11.80;99.90;;;;;;4178522;28;20098;-88
2022/05/05 10:47:08;;;;;;;7.10;6.90;;;11.90;99.90;;;;;;4194596;28;20522;-87
2022/05/05 10:49:41;;;;;;;6.93;6.53;;;11.90;99.90;;;;;;4195719;28;20090;-88
2022/05/05 10:52:12;;;;;;;5.97;5.78;;;11.90;99.90;;;;;;4161134;28;20041;-88
2022/05/05 10:54:22;;;;;;;6.38;6.07;;;11.90;99.90;;;;;;4162054;28;20125;-88
2022/05/05 10:56:26;;;;;;;6.50;6.15;;;12.00;99.90;;;;;;4177975;28;20530;-88
2022/05/05 10:59:03;;;;;;;6.30;6.18;;;12.00;99.90;;;;;;4164358;28;20057;-88
2022/05/05 11:01:09;;;;;;;7.00;6.57;;;12.20;99.90;;;;;;4171110;28;20048;-88
2022/05/05 11:03:18;;;;;;;7.07;6.65;;;12.20;99.90;;;;;;4182211;28;20044;-88
2022/05/05 11:05:28;;;;;;;11.05;10.35;;;12.20;99.90;;;;;;4169069;28;20041;-88
2022/05/05 11:07:30;;;;;;;9.43;8.32;;;12.20;99.90;;;;;;4196310;28;20039;-88
2022/05/05 11:09:37;;;;;;;8.52;8.07;;;12.20;99.90;;;;;;4193509;28;20059;-88
2022/05/05 11:11:42;;;;;;;8.85;8.07;;;12.20;99.90;;;;;;4186499;28;20815;-88
2022/05/05 11:13:48;;;;;;;10.73;8.65;;;12.10;99.90;;;;;;4177581;28;20033;-88
2022/05/05 11:22:55;;;;;;;7.85;7.20;;;12.30;99.90;;;;;;4195646;28;20076;-88